Time;durP1;ratioP1;P1;durP2;ratioP2;P2;SDS_P1;SDS_P2;PMS_P1;PMS_P2;Temp;Humidity;BMP_temperature;BMP_pressure;BME280_temperature;BME280_humidity;BME280_pressure;Samples;Min_cycle;Max_cycle;Signal;HPM_P1;HPM_P2
2021/12/26 00:00:23;;;;;;;93.78;39.90;;;-3.90;99.90;;;;;;5056370;28;20508;-78
2021/12/26 00:02:49;;;;;;;92.63;38.03;;;-3.80;99.90;;;;;;5055827;28;20100;-78
2021/12/26 00:05:16;;;;;;;96.78;38.30;;;-3.80;99.90;;;;;;5041403;28;20026;-79
2021/12/26 00:07:41;;;;;;;86.57;35.97;;;-3.90;99.90;;;;;;5061300;28;20127;-80
2021/12/26 00:10:10;;;;;;;109.63;39.63;;;-3.90;99.90;;;;;;5063250;28;20052;-79
2021/12/26 00:12:37;;;;;;;100.40;39.15;;;-3.90;99.90;;;;;;5061448;28;20033;-79
2021/12/26 00:15:04;;;;;;;93.75;38.40;;;-3.90;99.90;;;;;;5077855;28;20021;-78
2021/12/26 00:17:29;;;;;;;102.80;39.40;;;-4.00;99.90;;;;;;5063765;28;20021;-77
2021/12/26 00:19:55;;;;;;;99.82;38.38;;;-4.10;99.90;;;;;;5081257;28;20080;-76
2021/12/26 00:22:20;;;;;;;101.47;40.25;;;-4.20;99.90;;;;;;5081057;28;20043;-78
2021/12/26 00:24:46;;;;;;;101.60;38.70;;;-4.20;99.90;;;;;;5081119;28;20024;-76
2021/12/26 00:27:13;;;;;;;109.32;39.28;;;-4.20;99.90;;;;;;5063689;28;20020;-78
2021/12/26 00:29:39;;;;;;;106.13;38.17;;;-4.30;99.90;;;;;;5081003;28;20033;-77
2021/12/26 00:32:06;;;;;;;101.13;38.35;;;-4.40;99.90;;;;;;5063584;28;20025;-78
2021/12/26 00:34:32;;;;;;;104.68;38.05;;;-4.40;99.90;;;;;;5081025;28;20029;-77
2021/12/26 00:36:58;;;;;;;97.88;38.20;;;-4.40;99.90;;;;;;5080328;28;20081;-76
2021/12/26 00:39:24;;;;;;;94.55;38.75;;;-4.40;99.90;;;;;;5063392;28;20048;-78
2021/12/26 00:41:49;;;;;;;87.47;34.97;;;-4.30;99.90;;;;;;5064250;28;20041;-81
2021/12/26 00:44:15;;;;;;;98.13;38.65;;;-4.30;99.90;;;;;;5048708;28;20032;-80
2021/12/26 00:46:40;;;;;;;96.97;39.38;;;-4.30;99.90;;;;;;5049934;28;20029;-80
2021/12/26 00:49:06;;;;;;;103.10;38.70;;;-4.30;99.90;;;;;;5059647;28;20064;-77
2021/12/26 00:51:32;;;;;;;98.55;39.30;;;-4.30;99.90;;;;;;5077060;28;20028;-79
2021/12/26 00:53:58;;;;;;;98.43;37.70;;;-4.40;99.90;;;;;;5077436;28;20025;-78
2021/12/26 00:56:23;;;;;;;95.00;36.90;;;-4.30;99.90;;;;;;5077925;28;20039;-78
2021/12/26 00:58:49;;;;;;;94.07;37.90;;;-4.30;99.90;;;;;;5077647;28;20062;-80
2021/12/26 01:01:15;;;;;;;89.35;36.42;;;-4.40;99.90;;;;;;5077388;28;20025;-79
2021/12/26 01:03:41;;;;;;;94.32;37.72;;;-4.40;99.90;;;;;;5070837;28;20490;-81
2021/12/26 01:06:07;;;;;;;84.22;35.60;;;-4.40;99.90;;;;;;5043641;28;20025;-81
2021/12/26 01:08:38;;;;;;;95.50;36.50;;;-4.40;99.90;;;;;;5065863;28;20059;-82
2021/12/26 01:11:31;;;;;;;103.25;37.38;;;-4.40;99.90;;;;;;5065634;28;20056;-82
2021/12/26 01:13:58;;;;;;;91.22;35.17;;;-4.40;99.90;;;;;;5063103;28;20104;-80
2021/12/26 01:16:25;;;;;;;81.20;35.17;;;-4.40;99.90;;;;;;5043446;28;20474;-82
2021/12/26 01:18:52;;;;;;;86.88;33.88;;;-4.50;99.90;;;;;;5062842;28;20025;-82
2021/12/26 01:21:20;;;;;;;82.78;35.15;;;-4.50;99.90;;;;;;5062081;28;20020;-80
2021/12/26 01:23:52;;;;;;;81.75;34.42;;;-4.50;99.90;;;;;;5041633;28;20032;-80
2021/12/26 01:26:19;;;;;;;88.18;36.17;;;-4.50;99.90;;;;;;5065348;28;20029;-79
2021/12/26 01:28:45;;;;;;;79.25;34.75;;;-4.60;99.90;;;;;;5070893;28;20085;-78
2021/12/26 01:31:11;;;;;;;88.63;34.85;;;-4.60;99.90;;;;;;5049645;28;20028;-80
2021/12/26 01:33:37;;;;;;;82.70;35.17;;;-4.60;99.90;;;;;;5070191;28;20009;-82
2021/12/26 01:36:03;;;;;;;81.88;33.63;;;-4.70;99.90;;;;;;5059629;28;20388;-79
2021/12/26 01:38:29;;;;;;;78.90;33.30;;;-4.70;99.90;;;;;;5043834;28;20040;-80
2021/12/26 01:40:57;;;;;;;85.82;33.75;;;-4.70;99.90;;;;;;5042593;28;20025;-79
2021/12/26 01:43:27;;;;;;;76.45;32.00;;;-4.80;99.90;;;;;;5060278;28;20028;-82
2021/12/26 01:45:54;;;;;;;73.43;30.90;;;-4.80;99.90;;;;;;5060095;28;20044;-81
2021/12/26 01:48:20;;;;;;;74.28;29.92;;;-4.80;99.90;;;;;;5066698;28;20029;-79
2021/12/26 01:50:49;;;;;;;73.93;30.08;;;-4.80;99.90;;;;;;5069205;28;20021;-81
2021/12/26 01:53:15;;;;;;;73.55;31.60;;;-4.80;99.90;;;;;;5044981;28;20116;-79
2021/12/26 01:55:44;;;;;;;76.28;31.27;;;-4.80;99.90;;;;;;5062397;28;20068;-78
2021/12/26 01:58:26;;;;;;;77.13;31.42;;;-4.80;99.90;;;;;;5062620;28;20033;-80
2021/12/26 02:00:58;;;;;;;69.03;29.48;;;-4.80;99.90;;;;;;5063074;28;20029;-80
2021/12/26 02:03:24;;;;;;;69.90;28.70;;;-4.90;99.90;;;;;;5062387;28;20029;-80
2021/12/26 02:05:49;;;;;;;77.82;29.23;;;-4.90;99.90;;;;;;5043326;28;20474;-80
2021/12/26 02:08:17;;;;;;;71.03;27.67;;;-5.00;99.90;;;;;;5067096;28;20057;-79
2021/12/26 02:10:43;;;;;;;68.60;28.33;;;-5.00;99.90;;;;;;5069036;28;20021;-79
2021/12/26 02:13:09;;;;;;;71.55;29.13;;;-5.10;99.90;;;;;;5051490;28;20130;-78
2021/12/26 02:15:35;;;;;;;71.32;29.15;;;-5.00;99.90;;;;;;5069080;28;20052;-81
2021/12/26 02:18:01;;;;;;;65.68;27.50;;;-5.10;99.90;;;;;;5052231;28;20490;-79
2021/12/26 02:23:56;;;;;;;67.68;27.55;;;-5.10;99.90;;;;;;5033470;28;20032;-80
2021/12/26 02:29:00;;;;;;;66.75;24.80;;;-5.10;99.90;;;;;;5062916;28;20024;-80
2021/12/26 02:31:26;;;;;;;66.18;25.90;;;-5.20;99.90;;;;;;5043058;28;20025;-81
2021/12/26 02:33:51;;;;;;;62.95;24.38;;;-5.10;99.90;;;;;;5058715;28;20474;-81
2021/12/26 02:36:17;;;;;;;55.95;24.58;;;-5.10;99.90;;;;;;5054600;28;20036;-79
2021/12/26 02:38:43;;;;;;;69.18;25.02;;;-5.10;99.90;;;;;;5039012;28;20028;-81
2021/12/26 02:41:08;;;;;;;56.85;24.23;;;-5.10;99.90;;;;;;5039329;28;20037;-82
2021/12/26 02:43:35;;;;;;;60.33;24.13;;;-5.10;99.90;;;;;;5057081;28;20031;-80
2021/12/26 02:46:05;;;;;;;58.65;23.35;;;-5.10;99.90;;;;;;5039302;28;20036;-82
2021/12/26 02:48:31;;;;;;;54.28;22.70;;;-5.00;99.90;;;;;;5057223;28;20048;-82
2021/12/26 02:50:57;;;;;;;54.17;22.95;;;-5.00;99.90;;;;;;5057252;28;20029;-80
2021/12/26 02:53:23;;;;;;;59.10;23.00;;;-5.00;99.90;;;;;;5056749;28;20021;-80
2021/12/26 02:55:51;;;;;;;49.05;22.05;;;-5.00;99.90;;;;;;5038829;28;20478;-81
2021/12/26 02:58:17;;;;;;;62.10;23.10;;;-5.10;99.90;;;;;;5058552;28;20025;-79
2021/12/26 03:00:52;;;;;;;57.78;22.67;;;-5.10;99.90;;;;;;5062370;28;20402;-82
2021/12/26 03:03:17;;;;;;;54.85;22.30;;;-5.10;99.90;;;;;;5042559;28;20032;-79
2021/12/26 03:05:46;;;;;;;54.58;22.38;;;-5.20;99.90;;;;;;5059623;28;20029;-80
2021/12/26 03:08:18;;;;;;;57.67;22.73;;;-5.20;99.90;;;;;;5069920;28;20032;-81
2021/12/26 03:10:45;;;;;;;52.80;22.55;;;-5.30;99.90;;;;;;5059691;28;20037;-80
2021/12/26 03:13:12;;;;;;;56.20;20.98;;;-5.30;99.90;;;;;;5065750;28;20021;-77
2021/12/26 03:15:39;;;;;;;56.67;22.17;;;-5.30;99.90;;;;;;5044199;28;20790;-78
2021/12/26 03:18:07;;;;;;;58.90;23.77;;;-5.30;99.90;;;;;;5061668;28;20033;-79
2021/12/26 03:20:38;;;;;;;53.03;22.60;;;-5.40;99.90;;;;;;5064597;28;20077;-78
2021/12/26 03:23:06;;;;;;;57.63;22.63;;;-5.40;99.90;;;;;;5059626;28;20304;-79
2021/12/26 03:25:32;;;;;;;51.55;21.33;;;-5.50;99.90;;;;;;5061853;28;20036;-78
2021/12/26 03:27:59;;;;;;;55.17;23.30;;;-5.50;99.90;;;;;;5073013;28;20025;-77
2021/12/26 03:30:27;;;;;;;53.95;21.10;;;-5.50;99.90;;;;;;5048499;28;20021;-78
2021/12/26 03:32:53;;;;;;;48.78;20.27;;;-5.50;99.90;;;;;;5063278;28;20025;-80
2021/12/26 03:35:21;;;;;;;49.83;20.70;;;-5.50;99.90;;;;;;5062251;28;20025;-79
2021/12/26 03:37:47;;;;;;;43.88;19.50;;;-5.50;99.90;;;;;;5047635;28;20104;-78
2021/12/26 03:40:13;;;;;;;52.60;20.02;;;-5.50;99.90;;;;;;5065413;28;20029;-79
2021/12/26 03:42:39;;;;;;;52.10;20.05;;;-5.50;99.90;;;;;;5061869;28;20515;-79
2021/12/26 03:45:07;;;;;;;45.05;19.45;;;-5.50;99.90;;;;;;5061586;28;20092;-79
2021/12/26 03:47:34;;;;;;;48.97;18.52;;;-5.50;99.90;;;;;;5037351;28;20543;-79
2021/12/26 03:50:01;;;;;;;49.70;19.17;;;-5.50;99.90;;;;;;5038502;28;20032;-78
2021/12/26 03:52:27;;;;;;;37.80;16.55;;;-5.50;99.90;;;;;;5057692;28;20524;-81
2021/12/26 03:54:53;;;;;;;45.03;19.25;;;-5.50;99.90;;;;;;5058534;28;20017;-79
2021/12/26 03:57:19;;;;;;;35.80;17.33;;;-5.40;99.90;;;;;;5060893;28;20036;-80
2021/12/26 03:59:45;;;;;;;48.30;18.70;;;-5.50;99.90;;;;;;5062045;28;20044;-78
2021/12/26 04:02:12;;;;;;;43.33;17.35;;;-5.50;99.90;;;;;;5061941;28;20039;-80
2021/12/26 04:04:39;;;;;;;38.63;16.67;;;-5.50;99.90;;;;;;5044074;28;20051;-80
2021/12/26 04:07:04;;;;;;;41.38;16.48;;;-5.50;99.90;;;;;;5042898;28;20025;-81
2021/12/26 04:09:30;;;;;;;37.97;14.98;;;-5.40;99.90;;;;;;5045378;28;20112;-81
2021/12/26 04:11:56;;;;;;;33.33;14.88;;;-5.40;99.90;;;;;;5073455;28;20035;-80
2021/12/26 04:14:22;;;;;;;37.42;15.50;;;-5.40;99.90;;;;;;5072892;28;20017;-80
2021/12/26 04:16:47;;;;;;;40.92;15.57;;;-5.30;99.90;;;;;;5060337;28;20025;-81
2021/12/26 04:19:14;;;;;;;36.33;14.45;;;-5.30;99.90;;;;;;5041490;28;20100;-81
2021/12/26 04:21:40;;;;;;;32.42;13.38;;;-5.30;99.90;;;;;;5044420;28;20033;-79
2021/12/26 04:24:06;;;;;;;29.05;12.57;;;-5.30;99.90;;;;;;5061789;28;20040;-81
2021/12/26 04:26:32;;;;;;;31.92;13.30;;;-5.30;99.90;;;;;;5068326;28;20009;-80
2021/12/26 04:28:58;;;;;;;32.78;13.90;;;-5.30;99.90;;;;;;5057735;28;20101;-78
2021/12/26 04:31:24;;;;;;;32.72;13.05;;;-5.20;99.90;;;;;;5075116;28;20033;-79
2021/12/26 04:33:50;;;;;;;27.92;11.25;;;-5.20;99.90;;;;;;5069427;28;20033;-80
2021/12/26 04:36:16;;;;;;;35.60;13.77;;;-5.20;99.90;;;;;;5068131;28;20037;-79
2021/12/26 04:38:42;;;;;;;37.05;11.60;;;-5.10;99.90;;;;;;5074097;28;20013;-79
2021/12/26 04:41:08;;;;;;;24.48;11.60;;;-5.10;99.90;;;;;;5074984;28;20092;-78
2021/12/26 04:43:35;;;;;;;26.23;10.85;;;-5.10;99.90;;;;;;5057348;28;20108;-79
2021/12/26 04:46:05;;;;;;;29.90;11.95;;;-5.20;99.90;;;;;;5039159;28;20060;-78
2021/12/26 04:48:31;;;;;;;27.58;12.32;;;-5.10;99.90;;;;;;5039730;28;20032;-80
2021/12/26 04:50:59;;;;;;;30.42;12.85;;;-5.10;99.90;;;;;;5039036;28;20021;-80
2021/12/26 04:53:25;;;;;;;26.33;12.20;;;-5.10;99.90;;;;;;5027305;28;20009;-79
2021/12/26 04:55:51;;;;;;;27.83;12.05;;;-5.20;99.90;;;;;;5045627;28;20100;-80
2021/12/26 04:58:17;;;;;;;29.95;11.63;;;-5.10;99.90;;;;;;5050035;28;20036;-80
2021/12/26 05:00:42;;;;;;;33.50;11.98;;;-5.20;99.90;;;;;;5029917;28;20040;-81
2021/12/26 05:03:08;;;;;;;34.53;11.57;;;-5.10;99.90;;;;;;5047932;28;20055;-80
2021/12/26 05:05:35;;;;;;;30.00;11.70;;;-5.10;99.90;;;;;;5031297;28;20033;-79
2021/12/26 05:08:01;;;;;;;28.38;12.02;;;-5.10;99.90;;;;;;5039510;28;20030;-80
2021/12/26 05:10:28;;;;;;;23.95;10.98;;;-5.10;99.90;;;;;;5022155;28;20032;-80
2021/12/26 05:12:54;;;;;;;23.90;11.32;;;-5.10;99.90;;;;;;5039412;28;20396;-80
2021/12/26 05:15:21;;;;;;;38.70;14.55;;;-5.10;99.90;;;;;;5039140;28;20286;-79
2021/12/26 05:17:47;;;;;;;29.95;13.35;;;-5.10;99.90;;;;;;5039295;28;20093;-79
2021/12/26 05:20:13;;;;;;;21.52;11.38;;;-5.10;99.90;;;;;;5039210;28;20426;-82
2021/12/26 05:22:39;;;;;;;27.05;10.85;;;-5.10;99.90;;;;;;5021805;28;20175;-80
2021/12/26 05:25:08;;;;;;;28.77;11.98;;;-5.10;99.90;;;;;;5040852;28;20075;-79
2021/12/26 05:27:34;;;;;;;28.40;11.43;;;-5.20;99.90;;;;;;5049471;28;20026;-79
2021/12/26 05:30:00;;;;;;;18.48;10.02;;;-5.20;99.90;;;;;;5032418;28;20144;-78
2021/12/26 05:32:26;;;;;;;29.33;11.13;;;-5.20;99.90;;;;;;5030347;28;20056;-79
2021/12/26 05:34:51;;;;;;;23.23;11.13;;;-5.20;99.90;;;;;;5021731;28;20017;-78
2021/12/26 05:37:17;;;;;;;25.27;10.63;;;-5.20;99.90;;;;;;5038763;28;20532;-80
2021/12/26 05:39:43;;;;;;;21.83;9.75;;;-5.20;99.90;;;;;;5038763;28;20052;-80
2021/12/26 05:42:15;;;;;;;23.48;9.95;;;-5.20;99.90;;;;;;5039029;28;20502;-79
2021/12/26 05:44:44;;;;;;;20.65;9.73;;;-5.20;99.90;;;;;;5038795;28;20038;-80
2021/12/26 05:47:10;;;;;;;23.60;8.82;;;-5.20;99.90;;;;;;5042368;28;20052;-79
2021/12/26 05:49:36;;;;;;;22.70;9.00;;;-5.20;99.90;;;;;;5052054;28;20076;-79
2021/12/26 05:52:02;;;;;;;19.92;8.48;;;-5.20;99.90;;;;;;5055847;28;20025;-81
2021/12/26 05:54:27;;;;;;;20.00;8.50;;;-5.20;99.90;;;;;;5021047;28;20529;-80
2021/12/26 05:56:53;;;;;;;24.27;8.52;;;-5.20;99.90;;;;;;5039163;28;20033;-80
2021/12/26 05:59:18;;;;;;;22.48;8.35;;;-5.20;99.90;;;;;;5038269;28;20049;-80
2021/12/26 06:01:44;;;;;;;21.40;8.07;;;-5.20;99.90;;;;;;5038623;28;20036;-78
2021/12/26 06:04:10;;;;;;;19.55;8.50;;;-5.30;99.90;;;;;;5038714;28;20561;-79
2021/12/26 06:06:35;;;;;;;23.40;7.72;;;-5.20;99.90;;;;;;5037956;28;20036;-81
2021/12/26 06:09:03;;;;;;;23.23;8.50;;;-5.20;99.90;;;;;;5036986;28;20391;-79
2021/12/26 06:11:29;;;;;;;24.52;7.88;;;-5.30;99.90;;;;;;5021335;28;20029;-80
2021/12/26 06:13:54;;;;;;;21.75;8.43;;;-5.20;99.90;;;;;;5021196;28;20029;-79
2021/12/26 06:16:20;;;;;;;19.50;7.43;;;-5.20;99.90;;;;;;5039236;28;20029;-79
2021/12/26 06:18:45;;;;;;;26.48;7.65;;;-5.20;99.90;;;;;;5039548;28;20025;-79
2021/12/26 06:21:11;;;;;;;13.60;7.30;;;-5.20;99.90;;;;;;5022865;28;20475;-79
2021/12/26 06:23:36;;;;;;;17.88;7.78;;;-5.20;99.90;;;;;;5039994;28;20021;-79
2021/12/26 06:26:02;;;;;;;16.48;7.72;;;-5.30;99.90;;;;;;5043198;28;20026;-79
2021/12/26 06:28:28;;;;;;;19.17;7.82;;;-5.20;99.90;;;;;;5027080;28;20017;-79
2021/12/26 06:30:53;;;;;;;18.15;7.72;;;-5.20;99.90;;;;;;5043542;28;20045;-77
2021/12/26 06:33:19;;;;;;;18.60;7.68;;;-5.20;99.90;;;;;;5042111;28;20037;-79
2021/12/26 06:35:44;;;;;;;17.60;6.80;;;-5.20;99.90;;;;;;5040761;28;20052;-78
2021/12/26 06:38:10;;;;;;;19.35;7.88;;;-5.20;99.90;;;;;;5024821;28;20025;-80
2021/12/26 06:40:36;;;;;;;19.27;7.75;;;-5.20;99.90;;;;;;5048988;28;20483;-78
2021/12/26 06:43:01;;;;;;;20.67;7.80;;;-5.20;99.90;;;;;;5039231;28;20376;-79
2021/12/26 06:45:27;;;;;;;20.30;7.40;;;-5.20;99.90;;;;;;5023309;28;20112;-79
2021/12/26 06:47:55;;;;;;;19.15;8.25;;;-5.30;99.90;;;;;;5026716;28;20026;-79
2021/12/26 06:50:21;;;;;;;16.55;7.70;;;-5.20;99.90;;;;;;5021598;28;20418;-78
2021/12/26 06:52:48;;;;;;;20.15;7.60;;;-5.30;99.90;;;;;;5039519;28;20026;-78
2021/12/26 06:55:14;;;;;;;24.33;8.02;;;-5.30;99.90;;;;;;5021000;28;20053;-79
2021/12/26 06:57:41;;;;;;;19.05;7.57;;;-5.30;99.90;;;;;;5023101;28;20049;-79
2021/12/26 07:00:11;;;;;;;19.77;7.13;;;-5.30;99.90;;;;;;5042551;28;20053;-78
2021/12/26 07:02:36;;;;;;;15.48;7.43;;;-5.30;99.90;;;;;;5019400;28;20491;-79
2021/12/26 07:05:02;;;;;;;24.30;7.93;;;-5.30;99.90;;;;;;5038923;28;20025;-78
2021/12/26 07:07:28;;;;;;;21.42;7.95;;;-5.30;99.90;;;;;;5025612;28;20056;-78
2021/12/26 07:09:54;;;;;;;25.80;8.00;;;-5.20;99.90;;;;;;5020441;28;20033;-79
2021/12/26 07:12:19;;;;;;;18.85;8.85;;;-5.20;99.90;;;;;;5037070;28;20028;-77
2021/12/26 07:14:45;;;;;;;21.92;8.45;;;-5.20;99.90;;;;;;5041354;28;20025;-79
2021/12/26 07:17:10;;;;;;;20.52;7.55;;;-5.20;99.90;;;;;;5031175;28;20053;-77
2021/12/26 07:19:37;;;;;;;19.10;7.50;;;-5.30;99.90;;;;;;5030007;28;20033;-79
2021/12/26 07:22:03;;;;;;;15.63;6.68;;;-5.20;99.90;;;;;;5030126;28;20076;-78
2021/12/26 07:24:28;;;;;;;22.88;8.02;;;-5.30;99.90;;;;;;5052873;28;20085;-79
2021/12/26 07:26:54;;;;;;;20.63;7.35;;;-5.30;99.90;;;;;;5031275;28;20029;-79
2021/12/26 07:29:20;;;;;;;21.10;8.07;;;-5.20;99.90;;;;;;5028094;28;20068;-80
2021/12/26 07:31:46;;;;;;;19.45;8.60;;;-5.20;99.90;;;;;;5040805;28;20482;-81
2021/12/26 07:34:11;;;;;;;19.58;7.43;;;-5.20;99.90;;;;;;5033784;28;20047;-80
2021/12/26 07:36:37;;;;;;;20.02;8.00;;;-5.20;99.90;;;;;;5037022;28;20040;-82
2021/12/26 07:39:04;;;;;;;20.23;8.13;;;-5.20;99.90;;;;;;5052096;28;20029;-82
2021/12/26 07:41:30;;;;;;;16.88;7.45;;;-5.20;99.90;;;;;;5026677;28;20037;-81
2021/12/26 07:43:55;;;;;;;21.52;8.43;;;-5.20;99.90;;;;;;5027074;28;20059;-81
2021/12/26 07:46:21;;;;;;;16.08;7.35;;;-5.20;99.90;;;;;;5027562;28;20096;-82
2021/12/26 07:48:47;;;;;;;25.38;10.70;;;-5.20;99.90;;;;;;5047077;28;20025;-80
2021/12/26 07:51:13;;;;;;;17.27;7.18;;;-5.20;99.90;;;;;;5030992;28;20407;-80
2021/12/26 07:53:38;;;;;;;19.45;7.28;;;-5.10;99.90;;;;;;5033476;28;20017;-82
2021/12/26 07:56:04;;;;;;;14.50;7.07;;;-5.10;99.90;;;;;;5034215;28;20029;-80
2021/12/26 07:58:30;;;;;;;15.98;6.65;;;-5.00;99.90;;;;;;5030963;28;20402;-80
2021/12/26 08:00:55;;;;;;;19.95;7.88;;;-5.10;99.90;;;;;;5030920;28;20036;-79
2021/12/26 08:03:21;;;;;;;15.38;6.68;;;-4.90;99.90;;;;;;5044988;28;20371;-79
2021/12/26 08:05:47;;;;;;;14.93;6.75;;;-4.90;99.90;;;;;;5022220;28;20051;-77
2021/12/26 08:08:13;;;;;;;16.63;6.85;;;-4.90;99.90;;;;;;5044203;28;20032;-78
2021/12/26 08:10:38;;;;;;;16.88;7.03;;;-4.90;99.90;;;;;;5032081;28;20022;-79
2021/12/26 08:13:05;;;;;;;18.67;7.82;;;-4.80;99.90;;;;;;5055441;28;20013;-80
2021/12/26 08:15:30;;;;;;;14.40;6.82;;;-4.80;99.90;;;;;;5036847;28;20034;-77
2021/12/26 08:17:58;;;;;;;18.90;7.43;;;-4.80;99.90;;;;;;5051380;28;20059;-81
2021/12/26 08:20:23;;;;;;;20.80;8.57;;;-4.80;99.90;;;;;;5036313;28;20022;-80
2021/12/26 08:22:49;;;;;;;19.80;7.63;;;-4.90;99.90;;;;;;5049621;28;20029;-79
2021/12/26 08:25:15;;;;;;;15.23;7.70;;;-4.90;99.90;;;;;;5028767;28;20068;-79
2021/12/26 08:27:41;;;;;;;23.08;8.82;;;-4.80;99.90;;;;;;5047530;28;20018;-80
2021/12/26 08:30:08;;;;;;;22.92;8.63;;;-4.80;99.90;;;;;;5047869;28;20022;-79
2021/12/26 08:32:37;;;;;;;26.45;10.25;;;-4.80;99.90;;;;;;5043007;28;20075;-79
2021/12/26 08:35:04;;;;;;;21.65;8.77;;;-4.80;99.90;;;;;;5044817;28;20104;-80
2021/12/26 08:37:31;;;;;;;26.77;8.48;;;-4.80;99.90;;;;;;5027103;28;20057;-80
2021/12/26 08:39:57;;;;;;;19.90;8.73;;;-4.80;99.90;;;;;;5043626;28;20021;-81
2021/12/26 08:42:23;;;;;;;18.75;7.95;;;-4.80;99.90;;;;;;5027476;28;20091;-81
2021/12/26 08:44:51;;;;;;;20.25;8.20;;;-4.80;99.90;;;;;;5045424;28;20029;-81
2021/12/26 08:47:16;;;;;;;19.58;8.57;;;-4.70;99.90;;;;;;5026934;28;20451;-79
2021/12/26 08:49:42;;;;;;;20.75;8.32;;;-4.70;99.90;;;;;;5028160;28;20060;-79
2021/12/26 08:52:08;;;;;;;18.08;7.93;;;-4.60;99.90;;;;;;5045248;28;20041;-78
2021/12/26 08:54:38;;;;;;;22.05;8.40;;;-4.60;99.90;;;;;;5034396;28;20089;-80
2021/12/26 08:57:04;;;;;;;15.38;7.95;;;-4.60;99.90;;;;;;5036653;28;20075;-81
2021/12/26 08:59:30;;;;;;;17.05;7.60;;;-4.50;99.90;;;;;;5044598;28;20101;-81
2021/12/26 09:02:04;;;;;;;16.13;7.78;;;-4.50;99.90;;;;;;5044508;28;20449;-79
2021/12/26 09:04:30;;;;;;;21.55;7.90;;;-4.40;99.90;;;;;;5045244;28;20029;-78
2021/12/26 09:06:56;;;;;;;16.48;7.53;;;-4.30;99.90;;;;;;5046178;28;20033;-79
2021/12/26 09:09:22;;;;;;;21.13;8.23;;;-4.40;99.90;;;;;;5044575;28;20509;-79
2021/12/26 09:11:48;;;;;;;17.05;7.78;;;-4.40;99.90;;;;;;5028113;28;20029;-81
2021/12/26 09:14:14;;;;;;;18.98;8.77;;;-4.30;99.90;;;;;;5051038;28;20037;-79
2021/12/26 09:16:39;;;;;;;29.50;11.15;;;-4.20;99.90;;;;;;5053034;28;20030;-78
2021/12/26 09:19:06;;;;;;;19.75;8.07;;;-4.20;99.90;;;;;;5032885;28;20029;-79
2021/12/26 09:21:32;;;;;;;25.05;8.48;;;-4.10;99.90;;;;;;5037831;28;20097;-80
2021/12/26 09:23:58;;;;;;;19.85;7.78;;;-3.90;99.90;;;;;;5044052;28;20026;-80
2021/12/26 09:26:23;;;;;;;14.93;6.50;;;-3.30;99.90;;;;;;5041276;28;20033;-79
2021/12/26 09:28:50;;;;;;;23.33;7.95;;;-2.40;99.90;;;;;;5025860;28;20033;-79
2021/12/26 09:31:16;;;;;;;16.52;6.95;;;-1.80;99.90;;;;;;5048885;28;20053;-78
2021/12/26 09:33:42;;;;;;;14.85;6.85;;;-1.80;99.90;;;;;;5032319;28;20033;-81
2021/12/26 09:36:08;;;;;;;20.50;7.40;;;-1.90;99.90;;;;;;5047480;28;20033;-80
2021/12/26 09:38:33;;;;;;;14.23;6.38;;;-2.20;99.90;;;;;;5043635;28;20030;-79
2021/12/26 09:40:59;;;;;;;16.65;7.03;;;-2.50;99.90;;;;;;5026035;28;20072;-79
2021/12/26 09:43:26;;;;;;;15.13;7.10;;;-2.70;99.90;;;;;;5050348;28;20151;-79
2021/12/26 09:45:52;;;;;;;17.85;6.88;;;-2.80;99.90;;;;;;5053574;28;20033;-78
2021/12/26 09:48:18;;;;;;;17.63;7.97;;;-3.00;99.90;;;;;;5026983;28;20022;-81
2021/12/26 09:50:44;;;;;;;16.92;7.40;;;-3.00;99.90;;;;;;5044353;28;20029;-80
2021/12/26 09:53:09;;;;;;;19.85;7.72;;;-3.10;99.90;;;;;;5044890;28;20082;-80
2021/12/26 09:55:35;;;;;;;16.33;7.35;;;-3.00;99.90;;;;;;5047891;28;20021;-79
2021/12/26 09:58:01;;;;;;;17.13;7.20;;;-3.10;99.90;;;;;;5045501;28;20244;-80
2021/12/26 10:00:31;;;;;;;17.25;6.65;;;-3.10;99.90;;;;;;5046407;28;20433;-79
2021/12/26 10:03:14;;;;;;;15.15;6.95;;;-3.10;99.90;;;;;;5052792;28;20041;-80
2021/12/26 10:06:02;;;;;;;18.42;6.40;;;-3.20;99.90;;;;;;5039720;28;20100;-78
2021/12/26 10:08:29;;;;;;;16.52;6.40;;;-3.20;99.90;;;;;;5036302;28;20022;-79
2021/12/26 10:11:29;;;;;;;14.38;6.88;;;-3.20;99.90;;;;;;5034823;28;20073;-80
2021/12/26 10:14:00;;;;;;;12.25;5.93;;;-3.20;99.90;;;;;;5014625;28;20056;-81
2021/12/26 10:19:03;;;;;;;11.95;6.07;;;-3.20;99.90;;;;;;5437968;23;20052;-79
2021/12/26 10:21:32;;;;;;;15.13;6.70;;;-3.20;99.90;;;;;;5030105;28;20059;-78
2021/12/26 10:24:02;;;;;;;17.38;6.72;;;-3.10;99.90;;;;;;5065350;28;20047;-78
2021/12/26 10:26:31;;;;;;;13.45;6.18;;;-3.00;99.90;;;;;;5046214;28;20029;-78
2021/12/26 10:29:10;;;;;;;16.52;6.18;;;-3.00;99.90;;;;;;5034561;28;20029;-78
2021/12/26 10:31:42;;;;;;;15.55;6.13;;;-2.90;99.90;;;;;;5020629;28;20029;-79
2021/12/26 11:53:51;;;;;;;14.85;4.40;;;0.20;99.90;;;;;;5140825;23;20041;-76
2021/12/26 11:56:26;;;;;;;9.32;4.63;;;1.70;99.90;;;;;;5038092;28;20056;-76
2021/12/26 11:59:00;;;;;;;12.63;5.10;;;3.40;99.90;;;;;;5051399;28;20031;-76
2021/12/26 12:01:28;;;;;;;13.18;4.35;;;5.00;95.20;;;;;;5049596;28;20143;-75
2021/12/26 12:04:17;;;;;;;10.80;4.03;;;6.10;84.80;;;;;;5014596;28;20037;-76
2021/12/26 12:06:44;;;;;;;10.50;4.20;;;7.00;73.10;;;;;;5089497;22;20508;-78
2021/12/26 12:09:26;;;;;;;13.68;3.80;;;7.50;66.70;;;;;;5064095;28;20591;-77
2021/12/26 12:12:13;;;;;;;14.40;4.15;;;8.00;62.50;;;;;;5068584;28;20095;-77
2021/12/26 12:14:55;;;;;;;12.20;4.30;;;8.60;58.30;;;;;;5089973;28;20369;-77
2021/12/26 12:17:26;;;;;;;19.35;4.88;;;8.90;55.70;;;;;;5067257;28;20021;-78
2021/12/26 12:20:12;;;;;;;16.00;4.07;;;9.20;55.10;;;;;;5049092;28;20113;-78
2021/12/26 12:23:03;;;;;;;16.60;3.70;;;9.50;53.40;;;;;;5047671;28;20493;-78
2021/12/26 12:25:38;;;;;;;10.70;3.63;;;9.70;50.50;;;;;;5068513;28;20060;-79
2021/12/26 12:28:13;;;;;;;11.98;4.63;;;9.80;50.10;;;;;;5052213;28;20027;-80
2021/12/26 12:30:42;;;;;;;10.95;4.80;;;10.20;48.90;;;;;;5055141;28;20045;-79
2021/12/26 12:33:18;;;;;;;13.75;4.40;;;10.20;48.30;;;;;;5054681;28;20028;-79
2021/12/26 12:35:57;;;;;;;7.25;4.00;;;10.40;48.30;;;;;;5072632;28;20021;-78
2021/12/26 12:38:24;;;;;;;8.50;3.95;;;10.40;47.60;;;;;;5054770;28;20032;-76
2021/12/26 12:40:50;;;;;;;7.03;3.80;;;10.40;46.80;;;;;;5056373;28;20025;-78
2021/12/26 12:43:22;;;;;;;10.18;4.13;;;10.10;46.60;;;;;;5070555;28;20037;-78
2021/12/26 12:45:54;;;;;;;11.32;4.32;;;10.30;46.90;;;;;;5066529;28;20055;-77
2021/12/26 12:48:34;;;;;;;7.60;4.05;;;10.10;46.70;;;;;;5048566;28;20454;-78
2021/12/26 12:51:23;;;;;;;11.27;3.85;;;10.20;46.50;;;;;;5068332;28;20045;-80
2021/12/26 12:53:58;;;;;;;7.72;3.63;;;10.50;46.50;;;;;;5065656;28;20436;-79
2021/12/26 12:56:30;;;;;;;15.07;3.80;;;10.40;46.20;;;;;;5064975;28;20029;-78
2021/12/26 13:01:40;;;;;;;11.20;3.97;;;10.70;45.00;;;;;;5071351;28;20037;-77
2021/12/26 13:04:06;;;;;;;12.23;3.97;;;11.00;45.30;;;;;;5077142;28;20042;-75
2021/12/26 13:06:32;;;;;;;12.20;3.50;;;11.30;44.20;;;;;;5075792;28;20088;-76
2021/12/26 13:08:57;;;;;;;15.13;4.28;;;11.20;44.00;;;;;;5059962;28;20309;-75
2021/12/26 13:11:28;;;;;;;16.48;4.13;;;11.50;44.30;;;;;;5068471;28;20035;-75
2021/12/26 13:13:57;;;;;;;11.88;3.85;;;11.60;43.90;;;;;;5098953;28;20090;-77
2021/12/26 13:16:29;;;;;;;15.13;5.30;;;11.60;43.50;;;;;;5083122;28;20017;-75
2021/12/26 13:18:54;;;;;;;12.60;4.47;;;11.80;43.40;;;;;;5100238;28;20020;-76
2021/12/26 13:21:20;;;;;;;13.15;4.03;;;11.70;43.00;;;;;;5100831;28;20088;-76
2021/12/26 13:23:46;;;;;;;9.90;3.75;;;11.40;43.50;;;;;;5100383;28;20044;-76
2021/12/26 13:26:12;;;;;;;10.40;4.82;;;11.50;43.10;;;;;;5100273;28;20032;-77
2021/12/26 13:28:39;;;;;;;13.02;4.25;;;11.50;43.20;;;;;;5100375;28;20024;-76
2021/12/26 13:31:22;;;;;;;12.98;3.80;;;11.00;43.60;;;;;;5082838;28;20021;-78
2021/12/26 13:33:56;;;;;;;13.38;5.65;;;11.10;43.60;;;;;;5089904;28;20020;-77
2021/12/26 13:36:24;;;;;;;9.88;4.00;;;10.80;44.00;;;;;;5086772;28;20031;-79
2021/12/26 13:38:51;;;;;;;17.25;5.88;;;10.60;44.10;;;;;;5085341;28;20044;-78
2021/12/26 13:41:20;;;;;;;8.60;3.92;;;9.80;44.80;;;;;;5065889;28;20021;-80
2021/12/26 13:43:47;;;;;;;15.52;4.13;;;9.10;45.20;;;;;;5084527;28;20544;-79
2021/12/26 13:46:18;;;;;;;7.65;4.35;;;8.20;46.00;;;;;;5091862;28;20045;-77
2021/12/26 13:48:47;;;;;;;8.40;3.80;;;7.50;47.70;;;;;;5089597;28;20096;-80
2021/12/26 13:51:41;;;;;;;11.32;3.90;;;7.00;48.50;;;;;;5068024;28;20039;-81
2021/12/26 13:54:19;;;;;;;11.25;4.30;;;6.40;49.60;;;;;;5085372;28;20016;-79
2021/12/26 13:57:03;;;;;;;29.98;4.80;;;5.80;50.70;;;;;;5084852;28;20020;-78
2021/12/26 13:59:41;;;;;;;18.85;5.13;;;5.40;52.20;;;;;;5085679;28;20020;-78
2021/12/26 14:02:14;;;;;;;14.00;4.47;;;5.30;52.70;;;;;;5085670;28;20031;-79
2021/12/26 14:04:53;;;;;;;7.45;4.00;;;5.20;53.30;;;;;;5085599;28;20025;-77
2021/12/26 14:07:31;;;;;;;9.68;4.20;;;5.20;53.10;;;;;;5084820;28;20032;-79